createdAt,value
2022-08-17T00:01:52.136Z,66.25
2022-08-17T00:04:19.813Z,66.23
2022-08-17T00:06:49.124Z,65.94
2022-08-17T00:09:18.363Z,66.14
2022-08-17T00:12:03.932Z,65.69
2022-08-17T00:14:36.106Z,65.14
2022-08-17T00:17:04.644Z,65.03
2022-08-17T00:19:32.733Z,64.88
2022-08-17T00:22:33.777Z,65.28
2022-08-17T00:24:50.237Z,64.12
2022-08-17T00:27:17.428Z,64.49
2022-08-17T00:29:45.856Z,63.88
2022-08-17T00:33:13.920Z,63.56
2022-08-17T00:35:06.092Z,63.92
2022-08-17T00:37:32.728Z,62.75
2022-08-17T00:39:59.400Z,63.39
2022-08-17T00:42:31.153Z,62.47
2022-08-17T00:44:58.490Z,61.49
2022-08-17T00:47:25.361Z,61.49
2022-08-17T00:49:52.046Z,62.34
2022-08-17T00:52:23.116Z,61.72
2022-08-17T00:54:53.930Z,61.77
2022-08-17T00:57:25.250Z,61.91
2022-08-17T01:00:03.038Z,62.13
2022-08-17T01:02:43.142Z,62.79
2022-08-17T01:05:18.411Z,63.70
2022-08-17T01:07:47.738Z,63.18
2022-08-17T01:10:59.967Z,64.19
2022-08-17T01:13:03.899Z,64.05
2022-08-17T01:15:31.850Z,64.30
2022-08-17T01:17:58.403Z,64.25
2022-08-17T01:20:25.134Z,64.45
2022-08-17T01:22:52.409Z,65.34
2022-08-17T01:25:21.264Z,66.14
2022-08-17T01:27:49.244Z,66.80
2022-08-17T01:30:58.955Z,66.35
2022-08-17T01:33:04.326Z,66.73
2022-08-17T01:35:30.932Z,66.55
2022-08-17T01:37:57.461Z,66.24
2022-08-17T01:40:39.025Z,66.29
2022-08-17T01:43:21.606Z,66.61
2022-08-17T01:46:02.711Z,66.29
2022-08-17T01:48:33.084Z,65.81
2022-08-17T01:50:59.899Z,65.96
2022-08-17T01:53:34.880Z,66.47
2022-08-17T01:56:07.874Z,66.17
2022-08-17T01:58:36.162Z,66.98
2022-08-17T02:01:04.024Z,66.15
2022-08-17T02:03:31.915Z,67.60
2022-08-17T02:05:58.943Z,67.56
2022-08-17T02:08:39.180Z,67.67
2022-08-17T02:11:16.687Z,68.08
2022-08-17T02:13:45.213Z,67.94
2022-08-17T02:16:13.005Z,67.74
2022-08-17T02:18:40.012Z,68.21
2022-08-17T02:21:07.188Z,67.88
2022-08-17T02:23:38.586Z,68.58
2022-08-17T02:26:05.443Z,68.95
2022-08-17T02:28:32.071Z,69.64
2022-08-17T02:31:04.961Z,69.69
2022-08-17T02:34:09.527Z,69.61
2022-08-17T02:36:36.397Z,69.76
2022-08-17T02:39:06.684Z,70.66
2022-08-17T02:41:33.698Z,70.51
2022-08-17T02:44:01.257Z,70.59
2022-08-17T02:46:28.364Z,70.25
2022-08-17T02:48:55.008Z,70.75
2022-08-17T02:51:21.864Z,71.28
2022-08-17T02:53:48.450Z,71.03
2022-08-17T02:56:15.015Z,71.21
2022-08-17T02:58:41.539Z,71.39
2022-08-17T03:01:10.104Z,72.14
2022-08-17T03:03:38.358Z,71.69
2022-08-17T03:06:06.115Z,72.17
2022-08-17T03:08:32.640Z,71.67
2022-08-17T03:10:59.582Z,71.89
2022-08-17T03:13:27.495Z,71.95
2022-08-17T03:15:54.071Z,71.78
2022-08-17T03:18:25.671Z,72.43
2022-08-17T03:20:59.547Z,72.61
2022-08-17T03:23:27.527Z,73.01
2022-08-17T03:25:56.436Z,73.15
2022-08-17T03:28:24.459Z,73.13
2022-08-17T03:30:51.669Z,73.26
2022-08-17T03:33:19.457Z,72.18
2022-08-17T03:35:46.035Z,72.49
2022-08-17T03:38:15.145Z,72.93
2022-08-17T03:40:56.753Z,73.61
2022-08-17T03:43:30.074Z,72.85
2022-08-17T03:46:28.202Z,72.69
2022-08-17T03:49:23.901Z,72.05
2022-08-17T03:52:09.333Z,72.06
2022-08-17T03:54:54.124Z,72.44
2022-08-17T03:57:20.688Z,72.29
2022-08-17T03:59:47.686Z,71.64
2022-08-17T04:02:21.652Z,71.44
2022-08-17T04:04:50.884Z,71.38
2022-08-17T04:07:19.359Z,72.35
2022-08-17T04:09:45.905Z,72.24
2022-08-17T04:12:16.152Z,71.62
2022-08-17T04:14:53.540Z,71.24
2022-08-17T04:17:27.125Z,70.33
2022-08-17T04:19:55.447Z,71.48
2022-08-17T04:22:33.005Z,70.85
2022-08-17T04:25:32.218Z,70.22
2022-08-17T04:28:00.464Z,70.24
2022-08-17T04:30:29.896Z,69.31
2022-08-17T04:33:05.011Z,69.65
2022-08-17T04:35:36.928Z,69.16
2022-08-17T04:38:04.151Z,69.54
2022-08-17T04:40:49.311Z,69.85
2022-08-17T04:43:18.702Z,69.33
2022-08-17T04:45:54.984Z,69.79
2022-08-17T04:48:23.624Z,69.41
2022-08-17T04:51:03.664Z,68.88
2022-08-17T04:53:30.178Z,69.36
2022-08-17T04:55:58.968Z,68.86
2022-08-17T04:58:25.491Z,69.76
2022-08-17T05:00:52.083Z,68.97
2022-08-17T05:03:18.951Z,67.83
2022-08-17T05:05:49.715Z,67.24
2022-08-17T05:08:18.983Z,66.97
2022-08-17T05:10:46.876Z,67.66
2022-08-17T05:13:18.341Z,66.96
2022-08-17T05:15:47.768Z,67.29
2022-08-17T05:18:14.985Z,66.93
2022-08-17T05:20:41.769Z,66.86
2022-08-17T05:23:12.807Z,67.00
2022-08-17T05:25:42.085Z,67.80
2022-08-17T05:28:14.933Z,67.05
2022-08-17T05:30:43.968Z,67.41
2022-08-17T05:33:19.970Z,67.13
2022-08-17T05:35:48.709Z,66.64
2022-08-17T05:38:17.109Z,66.49
2022-08-17T05:40:44.179Z,65.75
2022-08-17T05:43:17.994Z,65.77
2022-08-17T05:46:22.009Z,65.88
2022-08-17T05:48:51.622Z,66.40
2022-08-17T05:51:55.877Z,65.28
2022-08-17T05:54:47.125Z,64.29
2022-08-17T05:57:53.404Z,64.39
2022-08-17T06:00:26.248Z,64.54
2022-08-17T06:03:21.830Z,64.71
2022-08-17T06:06:10.231Z,64.73
2022-08-17T06:08:55.040Z,65.27
2022-08-17T06:11:39.197Z,65.63
2022-08-17T06:14:38.477Z,65.44
2022-08-17T06:17:15.544Z,65.12
2022-08-17T06:20:15.682Z,65.65
2022-08-17T06:22:56.563Z,65.42
2022-08-17T06:25:32.329Z,64.49
2022-08-17T06:28:05.830Z,63.03
2022-08-17T06:30:58.438Z,61.58
2022-08-17T06:33:32.725Z,61.60
2022-08-17T06:36:10.706Z,60.87
2022-08-17T06:38:55.653Z,61.70
2022-08-17T06:41:38.130Z,60.91
2022-08-17T06:44:43.551Z,61.69
2022-08-17T06:47:27.958Z,62.61
2022-08-17T06:50:14.552Z,62.35
2022-08-17T06:52:57.093Z,63.32
2022-08-17T06:55:37.867Z,61.74
2022-08-17T06:58:15.916Z,61.69
2022-08-17T07:00:47.262Z,62.29
2022-08-17T07:03:29.365Z,61.54
2022-08-17T07:06:08.691Z,60.61
2022-08-17T07:08:55.841Z,60.62
2022-08-17T07:11:45.268Z,60.36
2022-08-17T07:14:36.557Z,60.11
2022-08-17T07:17:46.636Z,58.82
2022-08-17T07:20:15.160Z,57.17
2022-08-17T07:22:59.338Z,57.14
2022-08-17T07:25:28.569Z,57.14
2022-08-17T07:27:59.820Z,56.83
2022-08-17T07:30:44.591Z,56.60
2022-08-17T07:33:20.351Z,56.99
2022-08-17T07:35:48.459Z,58.37
2022-08-17T07:38:25.941Z,58.31
2022-08-17T07:40:57.679Z,58.24
2022-08-17T07:43:39.502Z,59.02
2022-08-17T07:46:43.205Z,59.96
2022-08-17T07:49:09.810Z,60.02
2022-08-17T07:51:42.508Z,59.46
2022-08-17T07:54:15.153Z,60.03
2022-08-17T07:57:29.498Z,59.31
2022-08-17T08:00:03.044Z,58.98
2022-08-17T08:02:40.237Z,60.34
2022-08-17T08:05:49.268Z,59.92
2022-08-17T08:08:22.486Z,60.53
2022-08-17T08:11:03.095Z,61.43
2022-08-17T08:13:30.837Z,61.05
2022-08-17T08:16:12.806Z,61.58
2022-08-17T08:18:54.109Z,61.87
2022-08-17T08:22:02.938Z,63.13
2022-08-17T08:25:12.788Z,62.67
2022-08-17T08:28:05.636Z,63.20
2022-08-17T08:30:40.702Z,62.23
2022-08-17T08:33:21.441Z,61.49
2022-08-17T08:38:48.374Z,61.30
2022-08-17T08:41:45.809Z,61.75
2022-08-17T08:44:58.974Z,62.59
2022-08-17T08:47:10.998Z,62.68
2022-08-17T08:50:03.538Z,61.77
2022-08-17T08:53:00.321Z,60.90
2022-08-17T08:55:49.136Z,61.02
2022-08-17T08:58:42.337Z,61.60
2022-08-17T09:01:21.183Z,62.04
2022-08-17T09:04:20.031Z,61.94
2022-08-17T09:06:56.530Z,62.17
2022-08-17T09:09:35.735Z,61.75
2022-08-17T09:12:33.941Z,62.35
2022-08-17T09:15:13.821Z,61.75
2022-08-17T09:19:02.575Z,62.53
2022-08-17T09:21:10.197Z,62.27
2022-08-17T09:23:49.449Z,63.11
2022-08-17T09:26:30.442Z,62.68
2022-08-17T09:29:02.218Z,63.63
2022-08-17T09:31:35.582Z,64.35
2022-08-17T09:34:19.177Z,63.86
2022-08-17T09:37:26.419Z,64.40
2022-08-17T09:40:15.810Z,64.14
2022-08-17T09:42:52.455Z,65.21
2022-08-17T09:45:24.812Z,65.11
2022-08-17T09:48:02.077Z,65.21
2022-08-17T09:51:03.984Z,66.28
2022-08-17T09:53:25.607Z,65.97
2022-08-17T09:56:14.311Z,65.94
2022-08-17T09:59:17.221Z,64.78
2022-08-17T10:01:51.618Z,64.57
2022-08-17T10:04:53.704Z,65.91
2022-08-17T10:08:09.292Z,66.05
2022-08-17T10:10:56.307Z,63.79
2022-08-17T10:13:32.962Z,61.54
2022-08-17T10:16:09.784Z,60.78
2022-08-17T10:18:54.931Z,61.63
2022-08-17T10:21:42.004Z,60.19
2022-08-17T10:25:20.879Z,59.06
2022-08-17T10:27:54.471Z,55.78
2022-08-17T10:30:25.877Z,53.79
2022-08-17T10:33:14.522Z,58.94
2022-08-17T10:36:10.598Z,59.59
2022-08-17T10:38:45.971Z,58.81
2022-08-17T10:41:38.222Z,58.13
2022-08-17T10:44:37.031Z,55.39
2022-08-17T10:47:11.802Z,52.43
2022-08-17T10:49:47.554Z,55.67
2022-08-17T10:52:20.258Z,56.37
2022-08-17T10:54:58.212Z,55.15
2022-08-17T10:57:34.111Z,54.52
2022-08-17T11:00:05.129Z,54.21
2022-08-17T11:02:53.266Z,54.87
2022-08-17T11:05:30.234Z,56.37
2022-08-17T11:08:08.019Z,57.15
2022-08-17T11:10:34.587Z,56.71
2022-08-17T11:13:31.311Z,56.80
2022-08-17T11:16:16.522Z,58.73
2022-08-17T11:19:10.982Z,57.97
2022-08-17T11:21:55.465Z,58.60
2022-08-17T11:24:30.601Z,58.62
2022-08-17T11:27:12.447Z,59.18
2022-08-17T11:30:03.534Z,57.95
2022-08-17T11:32:33.167Z,57.59
2022-08-17T11:35:21.475Z,54.35
2022-08-17T11:38:31.568Z,51.99
2022-08-17T11:41:27.431Z,50.20
2022-08-17T11:44:28.132Z,55.26
2022-08-17T11:47:32.153Z,55.27
2022-08-17T11:50:17.328Z,53.94
2022-08-17T11:52:49.719Z,52.83
2022-08-17T11:55:38.473Z,54.82
2022-08-17T11:58:29.479Z,54.42
2022-08-17T12:00:59.602Z,55.60
2022-08-17T12:03:32.225Z,56.70
2022-08-17T12:06:24.910Z,55.89
2022-08-17T12:09:06.852Z,55.34
2022-08-17T12:12:10.987Z,54.73
2022-08-17T12:15:05.787Z,54.65
2022-08-17T12:17:40.658Z,56.58
2022-08-17T12:20:19.003Z,55.97
2022-08-17T12:23:07.418Z,55.96
2022-08-17T12:25:43.201Z,54.44
2022-08-17T12:28:29.940Z,54.86
2022-08-17T12:31:01.796Z,55.68
2022-08-17T12:33:29.080Z,54.11
2022-08-17T12:36:05.555Z,54.32
2022-08-17T12:38:36.919Z,54.76
2022-08-17T12:41:24.821Z,53.84
2022-08-17T12:44:02.305Z,55.93
2022-08-17T12:46:44.752Z,56.54
2022-08-17T12:49:26.515Z,54.85
2022-08-17T12:52:12.522Z,54.52
2022-08-17T12:54:56.822Z,55.48
2022-08-17T12:57:27.406Z,54.73
2022-08-17T13:00:02.903Z,54.00
2022-08-17T13:02:41.374Z,54.29
2022-08-17T13:05:17.859Z,54.51
2022-08-17T13:07:46.621Z,54.20
2022-08-17T13:10:18.392Z,54.09
2022-08-17T13:12:45.175Z,54.38
2022-08-17T13:15:38.147Z,54.59
2022-08-17T13:18:45.623Z,52.70
2022-08-17T13:21:23.901Z,54.69
2022-08-17T13:24:12.008Z,55.33
2022-08-17T13:26:42.015Z,54.40
2022-08-17T13:29:16.669Z,54.98
2022-08-17T13:31:52.880Z,54.36
2022-08-17T13:34:26.885Z,53.19
2022-08-17T13:37:35.078Z,53.39
2022-08-17T13:40:10.788Z,55.49
2022-08-17T13:42:52.236Z,54.96
2022-08-17T13:45:36.203Z,55.10
2022-08-17T13:48:29.043Z,55.78
2022-08-17T13:50:55.641Z,55.65
2022-08-17T13:53:24.896Z,55.42
2022-08-17T13:56:33.430Z,55.04
2022-08-17T13:59:04.995Z,54.90
2022-08-17T14:01:36.498Z,55.36
2022-08-17T14:04:09.951Z,55.22
2022-08-17T14:06:53.013Z,54.67
2022-08-17T14:09:26.445Z,55.56
2022-08-17T14:11:54.885Z,55.21
2022-08-17T14:14:23.260Z,55.24
2022-08-17T14:16:53.505Z,54.91
2022-08-17T14:19:21.892Z,54.81
2022-08-17T14:21:49.125Z,56.55
2022-08-17T14:24:31.629Z,56.74
2022-08-17T14:27:00.441Z,56.82
2022-08-17T14:29:28.698Z,56.78
2022-08-17T14:31:56.595Z,57.18
2022-08-17T14:34:25.015Z,56.34
2022-08-17T14:36:52.446Z,56.88
2022-08-17T14:39:19.705Z,56.63
2022-08-17T14:41:46.687Z,57.05
2022-08-17T14:44:13.422Z,56.33
2022-08-17T14:46:41.765Z,57.06
2022-08-17T14:49:11.675Z,56.80
2022-08-17T14:51:44.042Z,56.17
2022-08-17T14:54:32.661Z,57.33
2022-08-17T14:57:24.785Z,57.06
2022-08-17T14:59:46.974Z,56.98
2022-08-17T15:02:13.541Z,55.36
2022-08-17T15:04:45.386Z,55.91
2022-08-17T15:07:12.409Z,54.84
2022-08-17T15:09:39.118Z,55.88
2022-08-17T15:12:06.847Z,55.15
2022-08-17T15:14:35.370Z,55.56
2022-08-17T15:17:03.710Z,55.80
2022-08-17T15:19:30.571Z,54.61
2022-08-17T15:21:57.290Z,56.18
2022-08-17T15:24:23.840Z,55.73
2022-08-17T15:26:51.445Z,55.19
2022-08-17T15:29:18.018Z,55.16
2022-08-17T15:31:44.667Z,54.64
2022-08-17T15:34:11.288Z,54.48
2022-08-17T15:36:37.944Z,54.82
2022-08-17T15:39:07.924Z,55.51
2022-08-17T15:41:34.770Z,54.36
2022-08-17T15:44:01.322Z,55.19
2022-08-17T15:46:28.347Z,54.36
2022-08-17T15:48:59.855Z,55.05
2022-08-17T15:51:31.536Z,54.75
2022-08-17T15:54:04.540Z,53.34
2022-08-17T15:56:46.230Z,55.89
2022-08-17T15:59:13.056Z,54.71
2022-08-17T16:03:04.677Z,55.08
2022-08-17T16:04:30.875Z,54.47
2022-08-17T16:06:58.728Z,53.81
2022-08-17T16:09:25.457Z,53.04
2022-08-17T16:11:55.511Z,53.08
2022-08-17T16:14:22.644Z,53.73
2022-08-17T16:16:51.814Z,53.56
2022-08-17T16:19:18.600Z,53.03
2022-08-17T16:21:45.148Z,51.74
2022-08-17T16:24:13.430Z,49.62
2022-08-17T16:26:40.493Z,50.46
2022-08-17T16:29:07.471Z,49.79
2022-08-17T16:31:34.173Z,50.67
2022-08-17T16:34:17.069Z,51.09
2022-08-17T16:36:53.685Z,51.12
2022-08-17T16:39:25.468Z,50.69
2022-08-17T16:41:52.052Z,51.04
2022-08-17T16:44:20.574Z,50.53
2022-08-17T16:46:48.339Z,51.34
2022-08-17T16:49:36.119Z,50.08
2022-08-17T16:52:05.396Z,52.41
2022-08-17T16:54:32.660Z,53.57
2022-08-17T16:56:59.374Z,54.00
2022-08-17T16:59:30.047Z,54.28
2022-08-17T17:02:04.865Z,53.64
2022-08-17T17:04:35.009Z,54.23
2022-08-17T17:07:43.187Z,53.66
2022-08-17T17:10:16.009Z,54.18
2022-08-17T17:13:02.408Z,54.56
2022-08-17T17:15:52.458Z,54.89
2022-08-17T17:18:23.025Z,55.21
2022-08-17T17:20:56.045Z,55.35
2022-08-17T17:23:47.117Z,55.31
2022-08-17T17:26:48.428Z,55.34
2022-08-17T17:29:46.520Z,56.40
2022-08-17T17:32:21.546Z,55.91
2022-08-17T17:34:54.006Z,57.27
2022-08-17T17:37:27.273Z,57.71
2022-08-17T17:39:57.815Z,58.17
2022-08-17T17:42:31.278Z,57.95
2022-08-17T17:44:57.915Z,58.76
2022-08-17T17:47:24.888Z,58.53
2022-08-17T17:49:51.691Z,58.88
2022-08-17T17:52:37.805Z,59.56
2022-08-17T17:55:07.278Z,58.65
2022-08-17T17:57:56.329Z,59.04
2022-08-17T18:00:30.374Z,59.46
2022-08-17T18:03:27.132Z,60.17
2022-08-17T18:06:31.142Z,59.50
2022-08-17T18:09:03.747Z,60.30
2022-08-17T18:11:41.789Z,61.68
2022-08-17T18:14:30.792Z,62.18
2022-08-17T18:16:59.686Z,62.11
2022-08-17T18:19:28.595Z,61.02
2022-08-17T18:22:14.133Z,60.86
2022-08-17T18:24:57.921Z,61.16
2022-08-17T18:27:24.596Z,61.01
2022-08-17T18:29:54.960Z,61.25
2022-08-17T18:32:23.537Z,61.22
2022-08-17T18:35:01.410Z,62.48
2022-08-17T18:37:49.937Z,62.22
2022-08-17T18:40:16.823Z,62.79
2022-08-17T18:42:58.324Z,62.62
2022-08-17T18:45:30.837Z,63.22
2022-08-17T18:47:57.417Z,63.14
2022-08-17T18:50:33.996Z,63.99
2022-08-17T18:53:26.694Z,63.00
2022-08-17T18:56:26.994Z,63.87
2022-08-17T18:58:57.648Z,62.98
2022-08-17T19:01:41.757Z,63.35
2022-08-17T19:04:34.094Z,64.08
2022-08-17T19:07:24.501Z,63.38
2022-08-17T19:10:17.324Z,65.25
2022-08-17T19:12:51.740Z,65.11
2022-08-17T19:15:24.830Z,65.15
2022-08-17T19:18:00.705Z,65.80
2022-08-17T19:20:50.246Z,64.84
2022-08-17T19:23:53.822Z,65.33
2022-08-17T19:26:53.662Z,65.72
2022-08-17T19:29:46.685Z,66.09
2022-08-17T19:32:16.827Z,65.52
2022-08-17T19:34:44.489Z,66.53
2022-08-17T19:37:16.780Z,66.29
2022-08-17T19:39:55.580Z,67.62
2022-08-17T19:42:42.479Z,67.35
2022-08-17T19:46:01.419Z,67.26
2022-08-17T19:48:48.323Z,66.69
2022-08-17T19:51:24.505Z,67.59
2022-08-17T19:54:10.494Z,67.48
2022-08-17T19:56:50.539Z,66.23
2022-08-17T19:59:26.099Z,66.44
2022-08-17T20:02:01.279Z,67.02
2022-08-17T20:04:32.270Z,67.00
2022-08-17T20:07:26.180Z,66.88
2022-08-17T20:10:06.947Z,66.76
2022-08-17T20:12:36.250Z,67.30
2022-08-17T20:15:10.291Z,67.11
2022-08-17T20:17:42.568Z,67.22
2022-08-17T20:20:20.263Z,66.86
2022-08-17T20:23:17.798Z,66.46
2022-08-17T20:25:53.526Z,66.55
2022-08-17T20:28:35.030Z,66.71
2022-08-17T20:31:02.722Z,66.67
2022-08-17T20:33:37.978Z,67.05
2022-08-17T20:36:22.745Z,67.26
2022-08-17T20:38:55.890Z,67.74
2022-08-17T20:41:27.902Z,67.73
2022-08-17T20:43:57.208Z,67.80
2022-08-17T20:46:28.729Z,67.96
2022-08-17T20:49:14.010Z,68.47
2022-08-17T20:52:07.847Z,68.19
2022-08-17T20:54:52.813Z,69.64
2022-08-17T20:57:34.402Z,69.94
2022-08-17T21:00:17.601Z,69.39
2022-08-17T21:02:46.694Z,69.46
2022-08-17T21:05:32.481Z,69.41
2022-08-17T21:08:16.203Z,69.60
2022-08-17T21:10:45.508Z,70.39
2022-08-17T21:13:13.866Z,69.72
2022-08-17T21:15:41.910Z,70.24
2022-08-17T21:18:38.611Z,70.74
2022-08-17T21:21:48.456Z,71.31
2022-08-17T21:24:39.276Z,71.56
2022-08-17T21:27:21.021Z,72.02
2022-08-17T21:30:13.174Z,72.90
2022-08-17T21:32:42.013Z,72.00
2022-08-17T21:35:17.599Z,72.48
2022-08-17T21:37:46.196Z,73.10
2022-08-17T21:40:12.836Z,73.55
2022-08-17T21:42:53.850Z,73.88
2022-08-17T21:45:36.843Z,73.21
2022-08-17T21:48:20.572Z,73.35
2022-08-17T21:50:59.364Z,73.43
2022-08-17T21:53:38.105Z,73.34
2022-08-17T21:56:06.390Z,73.88
2022-08-17T21:58:40.339Z,73.49
2022-08-17T22:01:13.030Z,73.53
2022-08-17T22:03:47.598Z,73.16
2022-08-17T22:06:54.225Z,73.03
2022-08-17T22:09:44.919Z,73.72
2022-08-17T22:12:22.734Z,74.49
2022-08-17T22:15:07.472Z,74.39
2022-08-17T22:17:38.733Z,75.30
2022-08-17T22:20:12.066Z,75.39
2022-08-17T22:23:19.600Z,75.59
2022-08-17T22:26:09.578Z,75.60
2022-08-17T22:28:49.282Z,75.72
2022-08-17T22:31:28.466Z,76.56
2022-08-17T22:33:59.747Z,76.29
2022-08-17T22:36:37.191Z,76.37
2022-08-17T22:39:09.685Z,76.89
2022-08-17T22:41:59.002Z,77.42
2022-08-17T22:44:36.516Z,77.55
2022-08-17T22:47:11.479Z,77.27
2022-08-17T22:49:57.944Z,77.85
2022-08-17T22:52:34.406Z,77.42
2022-08-17T22:55:37.641Z,77.99
2022-08-17T22:58:30.627Z,78.37
2022-08-17T23:01:17.109Z,77.93
2022-08-17T23:03:57.506Z,77.70
2022-08-17T23:06:24.483Z,78.35
2022-08-17T23:08:56.318Z,77.95
2022-08-17T23:11:36.698Z,77.77
2022-08-17T23:14:18.364Z,77.04
2022-08-17T23:16:45.392Z,77.57
2022-08-17T23:19:15.369Z,77.84
2022-08-17T23:21:44.859Z,78.36
2022-08-17T23:24:17.045Z,78.44
2022-08-17T23:26:43.568Z,77.97
2022-08-17T23:29:10.150Z,77.45
2022-08-17T23:31:38.590Z,77.05
2022-08-17T23:34:09.349Z,77.42
2022-08-17T23:36:36.202Z,78.15
2022-08-17T23:39:03.250Z,78.17
2022-08-17T23:41:33.642Z,77.88
2022-08-17T23:44:01.153Z,78.49
2022-08-17T23:46:27.689Z,78.23
2022-08-17T23:48:54.299Z,79.18
2022-08-17T23:51:27.340Z,80.18
2022-08-17T23:53:58.184Z,80.30
2022-08-17T23:56:25.742Z,80.38
2022-08-17T23:58:54.833Z,80.65
